createdAt,value
2022-10-11T00:00:47.370Z,57.33
2022-10-11T00:01:47.486Z,57.33
2022-10-11T00:02:47.600Z,57.23
2022-10-11T00:03:47.777Z,57.26
2022-10-11T00:04:47.945Z,57.06
2022-10-11T00:05:48.109Z,57.06
2022-10-11T00:06:48.270Z,57.15
2022-10-11T00:07:48.475Z,57.15
2022-10-11T00:08:48.600Z,57.06
2022-10-11T00:09:48.760Z,57.06
2022-10-11T00:10:48.922Z,56.96
2022-10-11T00:11:49.101Z,56.76
2022-10-11T00:12:49.270Z,56.85
2022-10-11T00:13:49.443Z,56.85
2022-10-11T00:14:49.591Z,56.45
2022-10-11T00:15:49.806Z,56.76
2022-10-11T00:16:49.975Z,56.76
2022-10-11T00:17:50.134Z,56.68
2022-10-11T00:18:50.295Z,56.68
2022-10-11T00:19:50.462Z,56.68
2022-10-11T00:20:50.620Z,56.68
2022-10-11T00:21:50.830Z,56.58
2022-10-11T00:22:51.021Z,56.68
2022-10-11T00:23:51.142Z,56.48
2022-10-11T00:24:51.326Z,56.58
2022-10-11T00:25:51.497Z,56.58
2022-10-11T00:26:51.681Z,56.58
2022-10-11T00:27:51.851Z,56.68
2022-10-11T00:28:52.058Z,56.68
2022-10-11T00:29:52.202Z,56.68
2022-10-11T00:30:52.379Z,56.61
2022-10-11T00:31:52.537Z,56.61
2022-10-11T00:32:52.697Z,56.61
2022-10-11T00:33:52.865Z,56.61
2022-10-11T00:34:53.029Z,56.71
2022-10-11T00:35:53.230Z,56.71
2022-10-11T00:36:53.355Z,56.71
2022-10-11T00:37:53.510Z,56.71
2022-10-11T00:38:53.701Z,56.71
2022-10-11T00:39:53.867Z,56.81
2022-10-11T00:40:54.044Z,56.71
2022-10-11T00:41:54.216Z,56.71
2022-10-11T00:42:54.381Z,56.71
2022-10-11T00:43:54.532Z,56.71
2022-10-11T00:44:54.691Z,56.71
2022-10-11T00:45:54.867Z,56.71
2022-10-11T00:46:56.021Z,56.71
2022-10-11T00:47:55.223Z,56.74
2022-10-11T00:48:55.371Z,56.74
2022-10-11T00:49:55.587Z,56.74
2022-10-11T00:50:55.757Z,56.84
2022-10-11T00:51:55.913Z,56.74
2022-10-11T00:52:56.114Z,56.84
2022-10-11T00:53:56.274Z,56.84
2022-10-11T00:54:56.464Z,56.84
2022-10-11T00:55:56.657Z,56.84
2022-10-11T00:56:56.813Z,56.84
2022-10-11T00:57:56.986Z,56.84
2022-10-11T00:58:57.146Z,56.93
2022-10-11T00:59:57.305Z,56.93
2022-10-11T01:00:57.533Z,56.93
2022-10-11T01:01:57.686Z,56.93
2022-10-11T01:02:57.861Z,56.93
2022-10-11T01:03:58.028Z,56.96
2022-10-11T01:05:25.137Z,56.96
2022-10-11T01:05:59.407Z,57.06
2022-10-11T01:06:58.587Z,57.06
2022-10-11T01:07:58.761Z,57.06
2022-10-11T01:08:58.934Z,57.06
2022-10-11T01:09:59.099Z,57.17
2022-10-11T01:10:59.277Z,57.17
2022-10-11T01:11:59.430Z,57.17
2022-10-11T01:12:59.593Z,57.17
2022-10-11T01:13:59.750Z,57.17
2022-10-11T01:14:59.919Z,57.26
2022-10-11T01:16:00.080Z,57.26
2022-10-11T01:17:00.289Z,57.26
2022-10-11T01:18:00.412Z,57.37
2022-10-11T01:19:00.610Z,57.39
2022-10-11T01:20:00.766Z,57.39
2022-10-11T01:21:00.931Z,57.39
2022-10-11T01:22:01.105Z,57.39
2022-10-11T01:23:01.262Z,57.50
2022-10-11T01:24:06.015Z,57.50
2022-10-11T01:25:02.613Z,57.50
2022-10-11T01:26:02.155Z,57.50
2022-10-11T01:27:01.990Z,57.59
2022-10-11T01:28:02.160Z,57.59
2022-10-11T01:29:02.324Z,57.59
2022-10-11T01:30:02.489Z,57.59
2022-10-11T01:31:02.646Z,57.70
2022-10-11T01:32:02.804Z,57.70
2022-10-11T01:33:02.990Z,57.59
2022-10-11T01:34:03.153Z,57.70
2022-10-11T01:35:03.315Z,57.72
2022-10-11T01:36:03.917Z,57.59
2022-10-11T01:37:03.666Z,57.70
2022-10-11T01:38:03.846Z,57.72
2022-10-11T01:39:04.007Z,57.72
2022-10-11T01:40:04.176Z,57.72
2022-10-11T01:41:04.362Z,57.82
2022-10-11T01:42:04.517Z,57.82
2022-10-11T01:43:04.719Z,57.82
2022-10-11T01:44:04.869Z,57.82
2022-10-11T01:45:05.076Z,57.82
2022-10-11T01:46:05.610Z,57.92
2022-10-11T01:47:05.390Z,57.92
2022-10-11T01:48:05.570Z,58.02
2022-10-11T01:49:05.741Z,58.02
2022-10-11T01:50:05.900Z,58.02
2022-10-11T01:51:06.051Z,58.12
2022-10-11T01:52:06.254Z,58.12
2022-10-11T01:53:06.426Z,58.12
2022-10-11T01:54:06.585Z,58.12
2022-10-11T01:55:10.514Z,58.25
2022-10-11T01:56:07.584Z,58.22
2022-10-11T01:57:07.158Z,58.25
2022-10-11T01:58:07.293Z,58.35
2022-10-11T01:59:07.454Z,58.35
2022-10-11T02:00:07.642Z,58.35
2022-10-11T02:01:07.869Z,58.45
2022-10-11T02:02:07.986Z,58.45
2022-10-11T02:03:08.189Z,58.45
2022-10-11T02:04:08.346Z,58.55
2022-10-11T02:05:08.512Z,58.55
2022-10-11T02:06:08.881Z,58.65
2022-10-11T02:07:08.893Z,58.65
2022-10-11T02:08:09.008Z,58.75
2022-10-11T02:09:09.198Z,58.75
2022-10-11T02:10:09.357Z,58.75
2022-10-11T02:11:09.569Z,58.86
2022-10-11T02:12:09.698Z,58.86
2022-10-11T02:13:09.891Z,58.95
2022-10-11T02:14:10.052Z,58.95
2022-10-11T02:15:10.228Z,58.95
2022-10-11T02:16:10.392Z,59.06
2022-10-11T02:17:10.570Z,59.06
2022-10-11T02:18:10.751Z,59.19
2022-10-11T02:19:10.940Z,59.19
2022-10-11T02:20:11.128Z,59.19
2022-10-11T02:21:11.290Z,59.28
2022-10-11T02:22:11.447Z,59.28
2022-10-11T02:23:11.627Z,59.39
2022-10-11T02:24:11.801Z,59.48
2022-10-11T02:25:11.961Z,59.48
2022-10-11T02:26:12.126Z,59.48
2022-10-11T02:27:12.292Z,59.69
2022-10-11T02:28:12.508Z,59.69
2022-10-11T02:29:12.631Z,59.69
2022-10-11T02:30:12.812Z,59.69
2022-10-11T02:31:12.992Z,59.69
2022-10-11T02:32:13.152Z,59.79
2022-10-11T02:33:13.326Z,60.02
2022-10-11T02:34:13.494Z,60.02
2022-10-11T02:35:13.655Z,59.92
2022-10-11T02:36:13.827Z,60.02
2022-10-11T02:37:13.985Z,60.02
2022-10-11T02:38:14.191Z,60.12
2022-10-11T02:39:14.347Z,60.12
2022-10-11T02:40:14.500Z,60.32
2022-10-11T02:41:14.685Z,60.22
2022-10-11T02:42:14.849Z,60.32
2022-10-11T02:43:15.036Z,60.32
2022-10-11T02:44:15.157Z,60.32
2022-10-11T02:45:15.326Z,60.42
2022-10-11T02:46:17.661Z,60.42
2022-10-11T02:47:15.653Z,60.42
2022-10-11T02:48:15.827Z,60.52
2022-10-11T02:49:16.010Z,60.52
2022-10-11T02:50:16.167Z,60.52
2022-10-11T02:51:16.343Z,60.52
2022-10-11T02:52:16.502Z,60.63
2022-10-11T02:53:16.684Z,60.63
2022-10-11T02:54:16.840Z,60.75
2022-10-11T02:55:17.051Z,60.75
2022-10-11T02:56:17.221Z,60.72
2022-10-11T02:57:17.352Z,60.83
2022-10-11T02:58:17.520Z,60.83
2022-10-11T02:59:17.710Z,60.83
2022-10-11T03:00:17.863Z,60.85
2022-10-11T03:01:18.130Z,60.85
2022-10-11T03:02:18.232Z,60.85
2022-10-11T03:03:18.414Z,60.85
2022-10-11T03:04:18.606Z,60.96
2022-10-11T03:05:18.802Z,60.96
2022-10-11T03:06:18.990Z,61.05
2022-10-11T03:07:19.145Z,61.05
2022-10-11T03:08:19.336Z,61.05
2022-10-11T03:09:19.488Z,61.16
2022-10-11T03:10:19.656Z,61.25
2022-10-11T03:11:19.845Z,61.25
2022-10-11T03:12:20.005Z,61.25
2022-10-11T03:13:20.176Z,61.25
2022-10-11T03:14:20.365Z,61.36
2022-10-11T03:15:20.539Z,61.36
2022-10-11T03:16:20.709Z,61.36
2022-10-11T03:17:37.313Z,61.46
2022-10-11T03:18:22.078Z,61.46
2022-10-11T03:19:21.235Z,61.56
2022-10-11T03:20:21.375Z,61.56
2022-10-11T03:21:21.568Z,61.56
2022-10-11T03:22:21.745Z,61.56
2022-10-11T03:23:21.913Z,61.66
2022-10-11T03:24:22.097Z,61.66
2022-10-11T03:25:22.261Z,61.76
2022-10-11T03:26:22.411Z,61.79
2022-10-11T03:27:22.570Z,61.79
2022-10-11T03:28:22.792Z,61.79
2022-10-11T03:29:22.955Z,61.89
2022-10-11T03:30:23.082Z,61.89
2022-10-11T03:31:23.255Z,61.89
2022-10-11T03:32:23.409Z,61.89
2022-10-11T03:33:23.574Z,61.99
2022-10-11T03:34:23.742Z,61.89
2022-10-11T03:35:23.907Z,61.99
2022-10-11T03:36:24.062Z,61.99
2022-10-11T03:37:24.257Z,61.99
2022-10-11T03:38:24.437Z,62.09
2022-10-11T03:39:24.614Z,62.09
2022-10-11T03:40:24.773Z,62.09
2022-10-11T03:41:24.935Z,62.09
2022-10-11T03:42:25.092Z,62.09
2022-10-11T03:43:25.283Z,62.19
2022-10-11T03:44:25.455Z,62.19
2022-10-11T03:45:25.620Z,62.19
2022-10-11T03:46:25.786Z,62.19
2022-10-11T03:47:25.946Z,62.19
2022-10-11T03:48:26.110Z,62.29
2022-10-11T03:49:26.327Z,62.29
2022-10-11T03:50:26.477Z,62.29
2022-10-11T03:51:26.651Z,62.29
2022-10-11T03:52:26.807Z,62.29
2022-10-11T03:53:26.981Z,62.29
2022-10-11T03:54:27.146Z,62.29
2022-10-11T03:55:27.323Z,62.29
2022-10-11T03:56:27.510Z,62.29
2022-10-11T03:57:27.632Z,62.40
2022-10-11T03:58:27.809Z,62.40
2022-10-11T03:59:27.958Z,62.40
2022-10-11T04:00:28.132Z,62.49
2022-10-11T04:01:28.293Z,62.49
2022-10-11T04:02:28.443Z,62.49
2022-10-11T04:03:28.633Z,62.49
2022-10-11T04:04:28.804Z,62.52
2022-10-11T04:05:28.968Z,62.52
2022-10-11T04:06:29.120Z,62.52
2022-10-11T04:07:29.282Z,62.52
2022-10-11T04:08:29.466Z,62.63
2022-10-11T04:09:29.685Z,62.63
2022-10-11T04:10:29.851Z,62.73
2022-10-11T04:11:30.002Z,62.73
2022-10-11T04:12:30.191Z,62.63
2022-10-11T04:13:30.406Z,62.73
2022-10-11T04:14:30.554Z,62.73
2022-10-11T04:15:30.736Z,62.73
2022-10-11T04:16:30.898Z,62.73
2022-10-11T04:17:31.059Z,62.83
2022-10-11T04:18:31.225Z,62.83
2022-10-11T04:19:31.416Z,62.83
2022-10-11T04:20:31.545Z,62.83
2022-10-11T04:21:31.793Z,62.83
2022-10-11T04:22:31.914Z,62.93
2022-10-11T04:23:32.056Z,62.83
2022-10-11T04:24:32.236Z,62.93
2022-10-11T04:25:32.387Z,62.93
2022-10-11T04:26:32.547Z,62.93
2022-10-11T04:27:32.747Z,62.93
2022-10-11T04:28:32.930Z,62.93
2022-10-11T04:29:33.097Z,63.03
2022-10-11T04:30:33.254Z,63.03
2022-10-11T04:31:33.420Z,63.03
2022-10-11T04:33:48.647Z,63.13
2022-10-11T04:34:48.817Z,63.26
2022-10-11T04:35:48.967Z,63.36
2022-10-11T04:36:50.090Z,63.36
2022-10-11T04:37:49.318Z,63.36
2022-10-11T04:38:49.482Z,63.36
2022-10-11T04:39:49.650Z,63.36
2022-10-11T04:40:49.799Z,63.36
2022-10-11T04:41:50.051Z,63.46
2022-10-11T04:42:50.122Z,63.36
2022-10-11T04:43:50.291Z,63.36
2022-10-11T04:44:50.472Z,63.36
2022-10-11T04:45:55.248Z,63.36
2022-10-11T04:46:51.814Z,63.46
2022-10-11T04:47:50.991Z,63.36
2022-10-11T04:48:51.151Z,63.36
2022-10-11T04:49:51.342Z,63.36
2022-10-11T04:50:51.463Z,63.36
2022-10-11T04:51:51.652Z,63.36
2022-10-11T04:52:51.815Z,63.36
2022-10-11T04:53:51.973Z,63.46
2022-10-11T04:54:52.143Z,63.36
2022-10-11T04:55:52.304Z,63.46
2022-10-11T04:56:52.462Z,63.46
2022-10-11T04:57:52.626Z,63.46
2022-10-11T04:58:52.789Z,63.46
2022-10-11T04:59:52.970Z,63.46
2022-10-11T05:00:53.116Z,63.46
2022-10-11T05:01:53.370Z,63.46
2022-10-11T05:02:53.484Z,63.46
2022-10-11T05:03:53.685Z,63.46
2022-10-11T05:04:53.855Z,63.46
2022-10-11T05:05:54.046Z,63.46
2022-10-11T05:06:54.200Z,63.46
2022-10-11T05:07:54.356Z,63.46
2022-10-11T05:08:54.527Z,63.56
2022-10-11T05:09:54.690Z,63.56
2022-10-11T05:10:54.855Z,63.56
2022-10-11T05:11:55.007Z,63.56
2022-10-11T05:12:55.158Z,63.56
2022-10-11T05:13:55.362Z,63.56
2022-10-11T05:14:55.519Z,63.56
2022-10-11T05:15:55.713Z,63.56
2022-10-11T05:16:55.875Z,63.59
2022-10-11T05:17:56.040Z,63.56
2022-10-11T05:18:56.202Z,63.56
2022-10-11T05:19:56.372Z,63.70
2022-10-11T05:20:56.526Z,63.59
2022-10-11T05:21:56.721Z,63.56
2022-10-11T05:22:56.882Z,63.70
2022-10-11T05:23:57.073Z,63.70
2022-10-11T05:24:57.232Z,63.70
2022-10-11T05:25:57.418Z,63.70
2022-10-11T05:27:02.343Z,63.70
2022-10-11T05:27:58.753Z,63.70
2022-10-11T05:28:57.944Z,63.70
2022-10-11T05:29:58.114Z,63.70
2022-10-11T05:30:58.283Z,63.70
2022-10-11T05:31:58.474Z,63.70
2022-10-11T05:32:58.615Z,63.70
2022-10-11T05:33:58.794Z,63.70
2022-10-11T05:34:58.985Z,63.70
2022-10-11T05:35:59.166Z,63.70
2022-10-11T05:36:59.355Z,63.70
2022-10-11T05:37:59.533Z,63.70
2022-10-11T05:38:59.709Z,63.79
2022-10-11T05:39:59.905Z,63.79
2022-10-11T05:41:00.074Z,63.79
2022-10-11T05:42:00.206Z,63.79
2022-10-11T05:43:00.386Z,63.79
2022-10-11T05:44:00.572Z,63.79
2022-10-11T05:45:00.765Z,63.79
2022-10-11T05:46:00.938Z,63.90
2022-10-11T05:47:01.100Z,63.90
2022-10-11T05:48:01.279Z,63.90
2022-10-11T05:49:01.448Z,63.90
2022-10-11T05:50:01.640Z,63.90
2022-10-11T05:51:01.788Z,63.90
2022-10-11T05:52:01.969Z,64.00
2022-10-11T05:53:02.141Z,64.00
2022-10-11T05:54:02.339Z,64.00
2022-10-11T05:55:02.479Z,64.00
2022-10-11T05:56:02.954Z,64.00
2022-10-11T05:57:02.819Z,64.10
2022-10-11T05:58:03.001Z,64.00
2022-10-11T05:59:03.179Z,64.10
2022-10-11T06:00:03.332Z,64.10
2022-10-11T06:01:03.557Z,64.10
2022-10-11T06:02:03.691Z,64.10
2022-10-11T06:03:03.861Z,64.10
2022-10-11T06:04:04.052Z,64.00
2022-10-11T06:05:04.243Z,64.10
2022-10-11T06:06:04.728Z,64.10
2022-10-11T06:07:04.560Z,64.10
2022-10-11T06:08:04.732Z,64.20
2022-10-11T06:09:04.924Z,64.20
2022-10-11T06:10:05.085Z,64.20
2022-10-11T06:11:08.165Z,64.10
2022-10-11T06:12:06.463Z,64.20
2022-10-11T06:13:05.618Z,64.10
2022-10-11T06:14:05.815Z,64.20
2022-10-11T06:15:05.974Z,64.30
2022-10-11T06:16:06.555Z,64.30
2022-10-11T06:17:06.287Z,64.20
2022-10-11T06:18:06.477Z,64.30
2022-10-11T06:19:06.657Z,64.30
2022-10-11T06:20:06.845Z,64.30
2022-10-11T06:21:06.996Z,64.30
2022-10-11T06:22:07.171Z,64.30
2022-10-11T06:23:07.346Z,64.30
2022-10-11T06:24:07.534Z,64.30
2022-10-11T06:25:07.690Z,64.40
2022-10-11T06:26:08.604Z,64.40
2022-10-11T06:27:08.047Z,64.40
2022-10-11T06:28:08.293Z,64.30
2022-10-11T06:29:09.400Z,64.30
2022-10-11T06:30:08.599Z,64.30
2022-10-11T06:31:08.779Z,64.40
2022-10-11T06:32:08.960Z,64.30
2022-10-11T06:33:09.139Z,64.40
2022-10-11T06:34:09.329Z,64.50
2022-10-11T06:35:09.503Z,64.50
2022-10-11T06:36:09.822Z,64.50
2022-10-11T06:37:09.860Z,64.50
2022-10-11T06:38:10.047Z,64.50
2022-10-11T06:39:10.206Z,64.50
2022-10-11T06:40:10.391Z,64.61
2022-10-11T06:41:10.531Z,64.70
2022-10-11T06:42:10.716Z,64.61
2022-10-11T06:43:10.892Z,64.61
2022-10-11T06:44:14.196Z,64.50
2022-10-11T06:45:11.235Z,64.61
2022-10-11T06:46:11.413Z,64.61
2022-10-11T06:47:11.597Z,64.61
2022-10-11T06:48:11.793Z,64.70
2022-10-11T06:49:12.004Z,64.70
2022-10-11T06:50:12.114Z,64.61
2022-10-11T06:51:12.305Z,64.81
2022-10-11T06:52:12.466Z,64.70
2022-10-11T06:53:12.630Z,64.81
2022-10-11T06:54:12.806Z,64.81
2022-10-11T06:55:12.946Z,64.70
2022-10-11T06:56:13.137Z,64.81
2022-10-11T06:57:13.315Z,64.81
2022-10-11T06:58:13.496Z,64.81
2022-10-11T06:59:13.697Z,64.81
2022-10-11T07:00:13.835Z,64.81
2022-10-11T07:01:14.225Z,64.81
2022-10-11T07:02:14.177Z,64.81
2022-10-11T07:03:14.358Z,64.81
2022-10-11T07:04:14.528Z,64.78
2022-10-11T07:05:14.687Z,64.78
2022-10-11T07:06:14.878Z,64.87
2022-10-11T07:07:15.056Z,64.87
2022-10-11T07:08:15.244Z,64.98
2022-10-11T07:09:15.423Z,64.87
2022-10-11T07:10:15.589Z,64.98
2022-10-11T07:11:15.773Z,64.87
2022-10-11T07:12:15.940Z,64.87
2022-10-11T07:13:17.366Z,64.78
2022-10-11T07:14:16.300Z,64.98
2022-10-11T07:15:16.440Z,64.98
2022-10-11T07:16:16.629Z,64.98
2022-10-11T07:17:16.820Z,64.98
2022-10-11T07:18:16.971Z,64.98
2022-10-11T07:19:17.401Z,64.78
2022-10-11T07:20:17.322Z,64.87
2022-10-11T07:21:17.502Z,64.78
2022-10-11T07:22:17.693Z,64.87
2022-10-11T07:23:17.865Z,64.87
2022-10-11T07:24:18.056Z,64.87
2022-10-11T07:25:18.213Z,64.87
2022-10-11T07:26:18.405Z,64.64
2022-10-11T07:27:18.595Z,64.64
2022-10-11T07:28:18.814Z,64.54
2022-10-11T07:29:18.953Z,64.44
2022-10-11T07:30:19.133Z,64.44
2022-10-11T07:31:19.296Z,64.54
2022-10-11T07:32:19.486Z,65.15
2022-10-11T07:33:19.683Z,70.29
2022-10-11T07:34:19.852Z,72.38
2022-10-11T07:35:20.027Z,73.88
2022-10-11T07:36:20.207Z,73.99
2022-10-11T07:37:20.397Z,73.75
2022-10-11T07:38:20.577Z,72.64
2022-10-11T07:39:20.776Z,72.34
2022-10-11T07:40:20.937Z,70.73
2022-10-11T07:41:21.108Z,70.39
2022-10-11T07:42:21.336Z,70.29
2022-10-11T07:43:21.476Z,70.50
2022-10-11T07:44:21.678Z,69.96
2022-10-11T07:45:21.836Z,69.65
2022-10-11T07:46:21.988Z,68.31
2022-10-11T07:47:22.158Z,68.51
2022-10-11T07:48:22.327Z,67.78
2022-10-11T07:49:22.521Z,66.87
2022-10-11T07:50:22.692Z,65.94
2022-10-11T07:51:22.890Z,65.34
2022-10-11T07:52:23.051Z,63.04
2022-10-11T07:53:23.231Z,60.35
2022-10-11T07:54:23.432Z,58.97
2022-10-11T07:55:23.602Z,57.41
2022-10-11T07:56:23.782Z,56.48
2022-10-11T07:57:23.964Z,56.79
2022-10-11T07:58:24.142Z,57.41
2022-10-11T07:59:24.571Z,57.41
2022-10-11T08:00:24.487Z,57.31
2022-10-11T08:01:24.720Z,57.11
2022-10-11T08:02:24.923Z,56.61
2022-10-11T08:03:24.975Z,56.94
2022-10-11T08:04:25.175Z,57.34
2022-10-11T08:05:25.305Z,57.87
2022-10-11T08:06:25.480Z,58.26
2022-10-11T08:07:25.657Z,58.17
2022-10-11T08:08:25.849Z,56.77
2022-10-11T08:09:26.036Z,56.87
2022-10-11T08:10:26.186Z,57.69
2022-10-11T08:11:26.373Z,56.99
2022-10-11T08:12:26.559Z,56.99
2022-10-11T08:13:26.739Z,57.09
2022-10-11T08:14:26.930Z,57.50
2022-10-11T08:15:27.073Z,57.69
2022-10-11T08:16:27.262Z,57.69
2022-10-11T08:17:27.449Z,58.19
2022-10-11T08:18:27.630Z,59.09
2022-10-11T08:19:27.840Z,59.79
2022-10-11T08:20:27.979Z,59.99
2022-10-11T08:21:28.162Z,59.99
2022-10-11T08:22:28.348Z,59.89
2022-10-11T08:23:28.542Z,59.79
2022-10-11T08:24:28.691Z,59.59
2022-10-11T08:25:28.891Z,59.30
2022-10-11T08:26:29.033Z,59.30
2022-10-11T08:27:29.208Z,59.30
2022-10-11T08:28:29.467Z,59.19
2022-10-11T08:29:29.553Z,59.19
2022-10-11T08:30:29.775Z,58.86
2022-10-11T08:31:29.933Z,59.17
2022-10-11T08:32:30.114Z,58.76
2022-10-11T08:33:30.333Z,58.86
2022-10-11T08:34:30.455Z,58.86
2022-10-11T08:35:30.645Z,58.97
2022-10-11T08:36:30.831Z,59.36
2022-10-11T08:37:31.015Z,59.06
2022-10-11T08:38:31.207Z,58.86
2022-10-11T08:39:31.384Z,58.64
2022-10-11T08:40:35.148Z,58.24
2022-10-11T08:41:31.747Z,58.04
2022-10-11T08:42:31.916Z,57.93
2022-10-11T08:43:32.118Z,57.24
2022-10-11T08:44:46.420Z,57.34
2022-10-11T08:45:33.440Z,57.14
2022-10-11T08:46:32.599Z,57.44
2022-10-11T08:47:32.780Z,57.24
2022-10-11T08:48:33.000Z,57.01
2022-10-11T08:49:33.160Z,56.71
2022-10-11T08:50:33.305Z,56.51
2022-10-11T08:51:33.480Z,56.91
2022-10-11T08:52:33.664Z,56.41
2022-10-11T08:53:33.841Z,57.11
2022-10-11T08:54:34.027Z,57.18
2022-10-11T08:55:34.186Z,56.68
2022-10-11T08:56:34.343Z,55.79
2022-10-11T08:57:34.522Z,55.88
2022-10-11T08:58:34.702Z,56.18
2022-10-11T08:59:34.874Z,56.18
2022-10-11T09:00:35.028Z,56.29
2022-10-11T09:01:35.282Z,56.16
2022-10-11T09:03:02.917Z,55.36
2022-10-11T09:03:36.533Z,55.56
2022-10-11T09:04:35.728Z,55.66
2022-10-11T09:05:35.896Z,55.06
2022-10-11T09:06:36.056Z,54.83
2022-10-11T09:07:36.234Z,54.83
2022-10-11T09:08:36.396Z,55.04
2022-10-11T09:09:36.566Z,55.33
2022-10-11T09:10:36.726Z,55.41
2022-10-11T09:11:36.936Z,55.41
2022-10-11T09:12:40.699Z,55.61
2022-10-11T09:13:37.267Z,55.71
2022-10-11T09:14:37.439Z,55.01
2022-10-11T09:15:37.619Z,54.58
2022-10-11T09:16:37.798Z,54.79
2022-10-11T09:17:37.958Z,54.79
2022-10-11T09:18:38.119Z,54.58
2022-10-11T09:19:38.286Z,54.46
2022-10-11T09:20:38.599Z,54.26
2022-10-11T09:21:38.640Z,53.76
2022-10-11T09:22:38.801Z,53.76
2022-10-11T09:23:38.961Z,54.66
2022-10-11T09:24:39.134Z,54.06
2022-10-11T09:25:39.292Z,53.34
2022-10-11T09:26:39.451Z,53.53
2022-10-11T09:28:01.304Z,53.74
2022-10-11T09:28:40.832Z,54.13
2022-10-11T09:29:39.943Z,54.60
2022-10-11T09:30:40.114Z,55.00
2022-10-11T09:31:40.274Z,54.31
2022-10-11T09:32:40.445Z,56.00
2022-10-11T09:33:40.630Z,56.00
2022-10-11T09:34:40.776Z,55.87
2022-10-11T09:35:40.936Z,55.18
2022-10-11T09:36:41.095Z,54.38
2022-10-11T09:37:41.262Z,54.28
2022-10-11T09:38:41.426Z,54.97
2022-10-11T09:39:41.590Z,54.75
2022-10-11T09:40:41.746Z,54.75
2022-10-11T09:41:41.938Z,54.85
2022-10-11T09:42:42.086Z,54.63
2022-10-11T09:43:42.258Z,54.43
2022-10-11T09:44:42.426Z,54.23
2022-10-11T09:45:45.716Z,54.03
2022-10-11T09:46:43.778Z,53.61
2022-10-11T09:47:42.974Z,53.70
2022-10-11T09:48:43.138Z,54.30
2022-10-11T09:49:43.346Z,54.40
2022-10-11T09:50:43.501Z,53.48
2022-10-11T09:51:43.681Z,53.48
2022-10-11T09:52:43.880Z,54.77
2022-10-11T09:53:44.042Z,52.89
2022-10-11T09:54:44.241Z,52.76
2022-10-11T09:55:44.393Z,53.66
2022-10-11T09:56:44.572Z,53.36
2022-10-11T09:57:44.754Z,53.36
2022-10-11T09:58:44.944Z,53.03
2022-10-11T09:59:45.119Z,53.23
2022-10-11T10:00:45.297Z,53.23
2022-10-11T10:01:45.532Z,52.94
2022-10-11T10:02:45.635Z,52.81
2022-10-11T10:03:45.829Z,53.50
2022-10-11T10:04:45.976Z,53.41
2022-10-11T10:05:46.156Z,53.60
2022-10-11T10:06:46.335Z,51.79
2022-10-11T10:07:46.513Z,51.40
2022-10-11T10:08:46.707Z,52.49
2022-10-11T10:09:46.852Z,50.90
2022-10-11T10:10:47.028Z,50.41
2022-10-11T10:11:47.207Z,51.79
2022-10-11T10:12:47.378Z,50.88
2022-10-11T10:13:47.577Z,50.48
2022-10-11T10:14:47.719Z,50.88
2022-10-11T10:15:47.941Z,50.38
2022-10-11T10:16:48.073Z,50.09
2022-10-11T10:17:48.269Z,50.85
2022-10-11T10:18:48.442Z,50.36
2022-10-11T10:19:48.620Z,49.37
2022-10-11T10:20:48.791Z,49.66
2022-10-11T10:21:48.976Z,47.09
2022-10-11T10:22:49.204Z,48.06
2022-10-11T10:23:49.344Z,48.36
2022-10-11T10:24:49.520Z,48.75
2022-10-11T10:25:49.705Z,49.15
2022-10-11T10:26:49.896Z,48.75
2022-10-11T10:27:50.074Z,48.75
2022-10-11T10:28:50.599Z,49.13
2022-10-11T10:29:50.393Z,48.63
2022-10-11T10:30:50.569Z,48.93
2022-10-11T10:32:51.925Z,48.55
2022-10-11T10:33:51.090Z,49.02
2022-10-11T10:34:51.246Z,47.34
2022-10-11T10:35:51.406Z,48.03
2022-10-11T10:36:51.578Z,49.02
2022-10-11T10:37:51.742Z,48.83
2022-10-11T10:38:52.412Z,48.14
2022-10-11T10:39:52.058Z,48.14
2022-10-11T10:40:52.219Z,48.14
2022-10-11T10:41:52.400Z,48.11
2022-10-11T10:42:52.538Z,48.03
2022-10-11T10:43:52.719Z,47.91
2022-10-11T10:44:52.911Z,47.94
2022-10-11T10:45:53.080Z,47.84
2022-10-11T10:46:53.281Z,47.94
2022-10-11T10:47:53.422Z,47.64
2022-10-11T10:49:55.304Z,47.94
2022-10-11T10:50:53.941Z,47.84
2022-10-11T10:51:54.122Z,48.03
2022-10-11T10:52:54.262Z,46.85
2022-10-11T10:53:54.436Z,47.52
2022-10-11T10:54:54.584Z,47.62
2022-10-11T10:55:54.764Z,47.81
2022-10-11T10:56:54.955Z,47.62
2022-10-11T10:57:55.106Z,47.91
2022-10-11T10:58:55.284Z,47.91
2022-10-11T10:59:55.443Z,47.91
2022-10-11T11:00:55.631Z,48.02
2022-10-11T11:01:55.873Z,48.90
2022-10-11T11:02:56.052Z,48.02
2022-10-11T11:03:56.132Z,46.63
2022-10-11T11:04:56.362Z,47.72
2022-10-11T11:05:56.492Z,47.81
2022-10-11T11:06:56.699Z,45.07
2022-10-11T11:07:56.835Z,45.76
2022-10-11T11:08:57.031Z,44.28
2022-10-11T11:09:57.178Z,45.47
2022-10-11T11:10:57.359Z,43.10
2022-10-11T11:11:57.550Z,42.70
2022-10-11T11:12:57.739Z,43.59
2022-10-11T11:13:57.901Z,42.11
2022-10-11T11:14:58.081Z,42.88
2022-10-11T11:15:58.249Z,42.08
2022-10-11T11:16:58.441Z,44.56
2022-10-11T11:17:58.601Z,44.26
2022-10-11T11:18:58.784Z,44.95
2022-10-11T11:19:58.976Z,45.35
2022-10-11T11:20:59.143Z,45.62
2022-10-11T11:21:59.345Z,45.72
2022-10-11T11:22:59.515Z,46.01
2022-10-11T11:23:59.695Z,45.23
2022-10-11T11:24:59.956Z,45.40
2022-10-11T11:26:00.056Z,45.40
2022-10-11T11:27:00.268Z,45.70
2022-10-11T11:28:00.425Z,45.57
2022-10-11T11:29:00.586Z,45.89
2022-10-11T11:30:00.746Z,45.78
2022-10-11T11:31:00.938Z,45.78
2022-10-11T11:32:01.107Z,46.17
2022-10-11T11:33:01.269Z,45.67
2022-10-11T11:34:01.409Z,45.28
2022-10-11T11:35:01.593Z,45.10
2022-10-11T11:36:01.877Z,44.91
2022-10-11T11:37:01.924Z,44.81
2022-10-11T11:38:06.227Z,44.59
2022-10-11T11:39:02.296Z,43.88
2022-10-11T11:40:02.476Z,43.56
2022-10-11T11:41:02.953Z,42.95
2022-10-11T11:42:02.800Z,42.22
2022-10-11T11:43:03.003Z,42.30
2022-10-11T11:44:03.170Z,42.40
2022-10-11T11:45:03.352Z,42.52
2022-10-11T11:46:03.530Z,43.03
2022-10-11T11:47:03.736Z,43.32
2022-10-11T11:48:03.866Z,43.71
2022-10-11T11:49:04.049Z,43.62
2022-10-11T11:50:04.235Z,43.71
2022-10-11T11:51:04.713Z,41.45
2022-10-11T11:52:04.565Z,42.73
2022-10-11T11:53:04.763Z,41.06
2022-10-11T11:54:04.910Z,41.75
2022-10-11T11:55:05.087Z,42.81
2022-10-11T11:56:05.292Z,43.10
2022-10-11T11:57:05.437Z,43.40
2022-10-11T11:58:07.223Z,43.01
2022-10-11T11:59:05.773Z,43.30
2022-10-11T12:00:05.959Z,43.20
2022-10-11T12:01:06.418Z,43.79
2022-10-11T12:02:06.387Z,43.30
2022-10-11T12:03:06.500Z,42.91
2022-10-11T12:04:06.680Z,42.49
2022-10-11T12:05:06.864Z,42.40
2022-10-11T12:06:07.052Z,42.49
2022-10-11T12:07:22.124Z,42.69
2022-10-11T12:08:08.412Z,42.20
2022-10-11T12:09:07.574Z,43.08
2022-10-11T12:10:07.764Z,41.41
2022-10-11T12:11:08.142Z,42.00
2022-10-11T12:12:08.096Z,42.79
2022-10-11T12:13:08.256Z,42.49
2022-10-11T12:14:08.457Z,42.40
2022-10-11T12:15:08.645Z,42.69
2022-10-11T12:16:08.809Z,42.40
2022-10-11T12:17:08.998Z,42.30
2022-10-11T12:18:09.146Z,42.00
2022-10-11T12:19:09.356Z,42.59
2022-10-11T12:20:09.562Z,42.30
2022-10-11T12:21:09.834Z,42.79
2022-10-11T12:22:09.887Z,42.00
2022-10-11T12:23:10.038Z,42.20
2022-10-11T12:24:10.198Z,42.10
2022-10-11T12:25:13.799Z,42.59
2022-10-11T12:26:11.563Z,42.59
2022-10-11T12:27:10.738Z,42.10
2022-10-11T12:28:10.915Z,42.57
2022-10-11T12:29:11.062Z,42.38
2022-10-11T12:30:11.239Z,42.86
2022-10-11T12:31:11.423Z,42.77
2022-10-11T12:32:11.611Z,42.57
2022-10-11T12:33:11.776Z,42.45
2022-10-11T12:34:11.923Z,42.55
2022-10-11T12:35:12.107Z,42.65
2022-10-11T12:36:12.472Z,42.04
2022-10-11T12:37:12.464Z,41.64
2022-10-11T12:38:12.623Z,41.64
2022-10-11T12:39:12.801Z,41.16
2022-10-11T12:40:12.974Z,41.35
2022-10-11T12:41:13.169Z,41.53
2022-10-11T12:42:13.319Z,40.84
2022-10-11T12:43:13.496Z,41.03
2022-10-11T12:44:13.680Z,41.02
2022-10-11T12:45:13.886Z,40.92
2022-10-11T12:46:14.022Z,41.31
2022-10-11T12:47:14.218Z,41.29
2022-10-11T12:48:14.391Z,41.00
2022-10-11T12:49:14.568Z,40.90
2022-10-11T12:50:14.770Z,40.80
2022-10-11T12:51:14.928Z,41.08
2022-10-11T12:52:15.108Z,41.96
2022-10-11T12:53:15.291Z,42.45
2022-10-11T12:54:27.115Z,43.04
2022-10-11T12:55:16.631Z,43.13
2022-10-11T12:56:15.844Z,43.72
2022-10-11T12:57:15.992Z,42.74
2022-10-11T12:58:16.156Z,42.62